الصفحة الرئيسية
METAR-TAF:

METAR-TAF

مطار :

Makassar, سولاوسي الجنوبية, إندونيسيا

دائرة عرض: 05-04S, خط طول: 119-33E, ارتفاع: 14 متر

مراقبة الطقس الحالي

تاريخ ووقت الإصدار 22 دقيقة قبل الساعة 05:30UTC
ريح 9 عقدة من الشمال/الشمال الغربي, الاتجاه يتراوح بين الغرب/الشمال الغربي و الشمال
درجة الحرارة 31°درجة مئوية
الرطوبة 71%
ضغط 1009 hPa
الرؤية 10 كم أو أكثر
غيوم قليلة على ارتفاع 1900 قدم

METAR: WAAA 310530Z 34009KT 300V010 9999 FEW019 31/25 Q1009 NOSIG

زمن: 12:52 (05:52 UTC)

توقعات

تاريخ ووقت الإصدار 52 دقيقة قبل الساعة 05:00UTC
التوقعات صالحة من31 الساعة 06 UTC إلى 01 الساعة 12 UTC
ريح 10 عقدة من الغرب/الشمال الغربي
الرؤية 10 كم أو أكثر
غيوم متفرقة على ارتفاع 1900 قدم
نظرية الاحتمالات 30% :
مؤقت
من 31 الساعة 07 UTC إلى 01 الساعة 10 UTC
الرؤية: 6000 متر
غيوم قليلة على ارتفاع 1800 قدم, مزنة ركامية.
عاصفة رعدية, مطر خفيف
أصبح
من 31 الساعة 11 UTC إلى 31 الساعة 13 UTC
ريح 5 عقدة من الشرق
الرؤية: 8000 متر

TAF: WAAA 310500Z 3106/0112 30010KT 9999 SCT019 PROB30 TEMPO 3107/0110 6000 -TSRA FEW018CB BECMG 3111/3113 10005KT 8000

أرصاد الطقس والتوقعات من أكثر من 4000 مطار (تقارير الطقس للمطار METAR والتنبؤ بالطقس بالمطارTAF).

المحطات المتاحة هي النقط الصفراء والحمراء على الخريطة.

حرك المؤشر فوق النقطة لمعرفة اسم المحطة.

ثم انقر لمعرفة أرصاد وتوقعات الطقس.

لتغيير الخارطة: اضغط على الأزرار الخضراء مع رمز الصليب الأسود للتكبير. على الزر الأخضر مع شرطة للتصغير، أو على الأسهم الخضراء للخرائط المجاورة.


METAR-TAF: